Time;durP1;ratioP1;P1;durP2;ratioP2;P2;SDS_P1;SDS_P2;PMS_P1;PMS_P2;Temp;Humidity;BMP_temperature;BMP_pressure;BME280_temperature;BME280_humidity;BME280_pressure;Samples;Min_cycle;Max_cycle;Signal;HPM_P1;HPM_P2
2022/12/23 00:06:20;;;;;;;0.67;0.40;;;;;;;;;;20923876;28;20230;-88
2022/12/23 00:16:22;;;;;;;0.50;0.40;;;;;;;;;;20908258;28;20213;-88
2022/12/23 00:26:25;;;;;;;0.30;0.30;;;;;;;;;;20917499;28;20226;-87
2022/12/23 00:36:29;;;;;;;3.43;0.40;;;;;;;;;;20885584;28;20279;-87
2022/12/23 00:46:32;;;;;;;0.37;0.30;;;;;;;;;;20900614;28;20222;-86
2022/12/23 00:56:34;;;;;;;0.67;0.40;;;;;;;;;;20900146;28;20213;-87
2022/12/23 01:06:36;;;;;;;0.40;0.30;;;;;;;;;;20949755;28;20230;-87
2022/12/23 01:16:38;;;;;;;0.43;0.37;;;;;;;;;;20915656;28;20202;-87
2022/12/23 01:26:39;;;;;;;0.93;0.57;;;;;;;;;;20916293;28;20371;-87
2022/12/23 01:36:42;;;;;;;0.80;0.30;;;;;;;;;;20928903;28;20217;-87
2022/12/23 01:46:43;;;;;;;0.40;0.30;;;;;;;;;;20898063;28;20255;-87
2022/12/23 01:56:45;;;;;;;1.27;0.40;;;;;;;;;;20880413;28;20218;-87
2022/12/23 02:17:20;;;;;;;0.60;0.20;;;;;;;;;;20911268;28;20222;-86
2022/12/23 02:27:26;;;;;;;0.50;0.40;;;;;;;;;;20893895;28;20302;-87
2022/12/23 02:37:28;;;;;;;0.43;0.40;;;;;;;;;;20893810;28;20633;-86
2022/12/23 02:47:51;;;;;;;0.20;0.20;;;;;;;;;;20897835;28;20279;-87
2022/12/23 02:57:55;;;;;;;0.80;0.20;;;;;;;;;;20905057;28;20269;-87
2022/12/23 03:07:59;;;;;;;1.27;0.30;;;;;;;;;;20920421;28;20226;-87
2022/12/23 03:18:09;;;;;;;0.20;0.20;;;;;;;;;;20921566;28;20207;-87
2022/12/23 03:28:26;;;;;;;0.10;0.10;;;;;;;;;;20922768;28;20710;-87
2022/12/23 03:38:31;;;;;;;0.20;0.20;;;;;;;;;;20885283;28;20201;-86
2022/12/23 03:48:35;;;;;;;0.20;0.20;;;;;;;;;;20917389;28;20632;-86
2022/12/23 03:58:36;;;;;;;0.23;0.23;;;;;;;;;;20904684;28;20217;-87
2022/12/23 04:08:39;;;;;;;0.20;0.20;;;;;;;;;;20900977;28;20591;-87
2022/12/23 04:18:41;;;;;;;0.10;0.10;;;;;;;;;;20914875;28;20210;-86
2022/12/23 04:28:42;;;;;;;0.60;0.10;;;;;;;;;;20914200;28;20225;-87
2022/12/23 04:38:44;;;;;;;0.20;0.20;;;;;;;;;;20896769;28;20219;-88
2022/12/23 04:48:46;;;;;;;0.20;0.20;;;;;;;;;;20896774;28;20222;-87
2022/12/23 04:58:48;;;;;;;0.17;0.17;;;;;;;;;;20912384;28;20214;-87
2022/12/23 05:08:50;;;;;;;0.20;0.20;;;;;;;;;;20893717;28;20794;-86
2022/12/23 05:18:52;;;;;;;0.20;0.20;;;;;;;;;;20910142;28;20210;-87
2022/12/23 05:28:54;;;;;;;0.10;0.10;;;;;;;;;;20910548;28;20226;-87
2022/12/23 05:38:56;;;;;;;0.10;0.10;;;;;;;;;;20892282;28;20201;-88
2022/12/23 05:48:58;;;;;;;0.10;0.10;;;;;;;;;;20907990;28;20226;-87
2022/12/23 05:59:01;;;;;;;0.57;0.37;;;;;;;;;;20877154;28;20280;-87
2022/12/23 06:09:02;;;;;;;0.30;0.30;;;;;;;;;;20907073;28;20226;-87
2022/12/23 06:19:04;;;;;;;0.20;0.20;;;;;;;;;;20875478;28;20213;-87
2022/12/23 06:29:06;;;;;;;1.20;0.93;;;;;;;;;;20907944;28;20791;-86
2022/12/23 06:39:09;;;;;;;7.30;5.43;;;;;;;;;;20905732;28;20214;-87
2022/12/23 06:49:11;;;;;;;0.50;0.30;;;;;;;;;;20889321;28;20221;-88
2022/12/23 06:59:13;;;;;;;0.10;0.10;;;;;;;;;;20897024;28;20222;-88
2022/12/23 07:09:15;;;;;;;0.50;0.30;;;;;;;;;;20923132;28;20230;-87
2022/12/23 07:19:17;;;;;;;0.30;0.30;;;;;;;;;;20907084;28;20222;-87
2022/12/23 07:29:19;;;;;;;0.20;0.20;;;;;;;;;;20891545;28;20229;-86
2022/12/23 07:39:21;;;;;;;0.43;0.37;;;;;;;;;;20886328;28;20226;-87
2022/12/23 07:49:23;;;;;;;0.20;0.20;;;;;;;;;;20916609;28;20299;-87
2022/12/23 07:59:26;;;;;;;0.47;0.20;;;;;;;;;;20884178;28;20222;-87
2022/12/23 08:09:29;;;;;;;0.20;0.20;;;;;;;;;;20921611;28;20226;-88
2022/12/23 08:20:18;;;;;;;0.20;0.20;;;;;;;;;;20906070;28;20209;-88
2022/12/23 08:31:02;;;;;;;0.33;0.33;;;;;;;;;;20921049;28;20275;-87
2022/12/23 08:41:07;;;;;;;0.30;0.30;;;;;;;;;;20879195;28;20264;-88
2022/12/23 08:51:13;;;;;;;0.40;0.30;;;;;;;;;;20867498;28;20307;-87
2022/12/23 09:01:16;;;;;;;0.20;0.20;;;;;;;;;;20919406;28;20276;-88
2022/12/23 09:11:20;;;;;;;0.20;0.20;;;;;;;;;;20902854;28;20275;-87
2022/12/23 09:21:23;;;;;;;0.50;0.30;;;;;;;;;;20944259;28;20218;-87
2022/12/23 09:31:31;;;;;;;0.30;0.20;;;;;;;;;;20903220;28;20225;-88
2022/12/23 09:42:01;;;;;;;0.97;0.63;;;10.30;99.90;;;;;;20918858;28;20217;-87
2022/12/23 09:52:05;;;;;;;1.13;0.70;;;;;;;;;;20917229;28;20226;-86
2022/12/23 10:02:25;;;;;;;0.40;0.40;;;;;;;;;;20899615;28;20671;-87
2022/12/23 10:12:28;;;;;;;0.60;0.50;;;;;;;;;;20881251;28;20268;-89
2022/12/23 10:22:35;;;;;;;0.80;0.50;;;;;;;;;;20898433;28;20228;-88
2022/12/23 10:32:51;;;;;;;0.77;0.50;;;;;;;;;;20913366;28;20260;-88
2022/12/23 10:43:18;;;;;;;0.43;0.37;;;;;;;;;;20897278;28;20221;-87
2022/12/23 10:53:28;;;;;;;0.27;0.27;;;;;;;;;;20920084;28;20571;-90
2022/12/23 11:03:31;;;;;;;1.37;0.77;;;;;;;;;;20897536;28;20229;-87
2022/12/23 11:13:35;;;;;;;1.40;0.50;;;;;;;;;;20900778;28;20256;-87
2022/12/23 11:23:37;;;;;;;0.40;0.40;;;;;;;;;;20902835;28;20287;-88
2022/12/23 11:33:48;;;;;;;0.40;0.37;;;;;;;;;;20894360;28;20225;-87
2022/12/23 11:43:54;;;;;;;0.30;0.30;;;;;;;;;;20909493;28;20229;-88
2022/12/23 11:54:00;;;;;;;2.03;0.80;;;;;;;;;;20912201;28;20222;-88
2022/12/23 12:04:09;;;;;;;0.47;0.33;;;;;;;;;;20921582;28;20780;-87
2022/12/23 12:14:19;;;;;;;0.47;0.40;;;;;;;;;;20909771;28;20198;-87
2022/12/23 12:24:44;;;;;;;0.20;0.20;;;;;;;;;;20905570;28;20229;-88
2022/12/23 12:34:49;;;;;;;0.20;0.20;;;;;;;;;;20921253;28;20218;-87
2022/12/23 12:44:51;;;;;;;0.40;0.30;;;;;;;;;;20921994;28;20694;-88
2022/12/23 12:55:03;;;;;;;0.50;0.50;;;;;;;;;;20906937;28;20251;-87
2022/12/23 13:05:18;;;;;;;0.20;0.20;;;;;;;;;;20941458;28;20581;-87
2022/12/23 13:15:40;;;;;;;0.33;0.33;;;;;;;;;;20885766;28;20283;-86
2022/12/23 13:25:43;;;;;;;0.70;0.47;;;;;;;;;;20898010;28;20221;-87
2022/12/23 13:36:03;;;;;;;0.30;0.30;;;10.70;99.90;;;;;;20914678;28;20214;-87
2022/12/23 13:46:08;;;;;;;0.30;0.30;;;;;;;;;;20897389;28;20279;-87
2022/12/23 13:56:10;;;;;;;0.23;0.23;;;;;;;;;;20915269;28;20218;-88
2022/12/23 14:06:41;;;;;;;0.33;0.30;;;;;;;;;;20896340;28;20221;-88
2022/12/23 14:16:53;;;;;;;0.20;0.20;;;;;;;;;;20895900;28;20272;-87
2022/12/23 14:27:13;;;;;;;0.37;0.37;;;;;;;;;;20897101;28;20263;-86
2022/12/23 14:37:26;;;;;;;0.57;0.40;;;;;;;;;;20941258;28;20210;-88
2022/12/23 14:47:30;;;;;;;0.30;0.30;;;;;;;;;;20911977;28;20221;-85
2022/12/23 14:57:33;;;;;;;0.40;0.40;;;;;;;;;;20920589;28;20676;-86
2022/12/23 15:07:37;;;;;;;0.20;0.20;;;;;;;;;;20921458;28;20218;-86
2022/12/23 15:17:39;;;;;;;0.33;0.33;;;;;;;;;;20903846;28;20268;-85
2022/12/23 15:27:40;;;;;;;0.20;0.20;;;;;;;;;;20904231;28;20234;-86
2022/12/23 15:37:42;;;;;;;0.17;0.17;;;;;;;;;;20918347;28;20217;-87
2022/12/23 15:47:45;;;;;;;0.20;0.20;;;;;;;;;;20959791;28;20275;-87
2022/12/23 15:57:48;;;;;;;0.90;0.53;;;;;;;;;;20881351;28;20217;-86
2022/12/23 16:07:50;;;;;;;0.33;0.30;;;;;;;;;;20987987;28;20787;-86
2022/12/23 16:18:10;;;;;;;0.70;0.40;;;;;;;;;;20979892;28;20243;-86
2022/12/23 16:28:20;;;;;;;0.93;0.20;;;;;;;;;;20963128;28;20247;-85
2022/12/23 16:38:23;;;;;;;9.33;5.73;;;;;;;;;;20979149;28;20208;-85
2022/12/23 16:48:41;;;;;;;0.43;0.30;;;;;;;;;;21001700;28;20267;-87
2022/12/23 16:58:44;;;;;;;0.30;0.30;;;;;;;;;;20990384;28;20213;-85
2022/12/23 17:08:46;;;;;;;0.20;0.20;;;;;;;;;;20987046;28;20286;-86
2022/12/23 17:18:49;;;;;;;0.30;0.30;;;;;;;;;;20962761;28;20221;-86
2022/12/23 17:28:51;;;;;;;0.37;0.23;;;;;;;;;;20993659;28;20225;-85
2022/12/23 17:38:53;;;;;;;0.30;0.30;;;;;;;;;;20980017;28;20775;-86
2022/12/23 17:48:57;;;;;;;0.63;0.10;;;;;;;;;;20976183;28;20237;-86
2022/12/23 17:58:59;;;;;;;0.20;0.20;;;;;;;;;;21008005;28;20271;-86
2022/12/23 18:09:01;;;;;;;1.50;0.30;;;;;;;;;;20888910;28;20233;-87
2022/12/23 18:19:03;;;;;;;0.53;0.33;;;;;;;;;;20907483;28;20242;-86
2022/12/23 18:29:05;;;;;;;0.30;0.30;;;;;;;;;;20996146;28;20233;-87
2022/12/23 18:39:07;;;;;;;0.20;0.20;;;;;;;;;;20973722;28;20194;-88
2022/12/23 18:49:08;;;;;;;0.97;0.30;;;;;;;;;;20991746;28;20217;-86
2022/12/23 18:59:15;;;;;;;0.53;0.47;;;;;;;;;;21027993;28;20204;-87
2022/12/23 19:09:19;;;;;;;3.53;0.60;;;;;;;;;;20920814;28;20286;-87
2022/12/23 19:19:21;;;;;;;1.67;0.50;;;;;;;;;;20984781;28;20213;-87
2022/12/23 19:29:23;;;;;;;1.60;0.40;;;;;;;;;;20998303;28;20235;-87
2022/12/23 19:39:25;;;;;;;0.53;0.37;;;;;;;;;;21001930;28;20298;-87
2022/12/23 19:49:28;;;;;;;0.30;0.23;;;;;;;;;;21001977;28;20225;-88
2022/12/23 19:59:29;;;;;;;0.27;0.20;;;;;;;;;;20971054;28;20611;-87
2022/12/23 20:09:31;;;;;;;0.50;0.30;;;;;;;;;;20966313;28;20263;-87
2022/12/23 20:19:33;;;;;;;0.70;0.40;;;;;;;;;;20998983;28;20570;-86
2022/12/23 20:29:35;;;;;;;0.43;0.20;;;;;;;;;;20998491;28;20581;-87
2022/12/23 20:39:37;;;;;;;1.63;0.50;;;;;;;;;;20948607;28;20218;-88
2022/12/23 20:49:38;;;;;;;2.10;0.73;;;;;;;;;;20954015;28;20295;-85
2022/12/23 20:59:40;;;;;;;3.53;0.70;;;;;;;;;;20964858;28;20569;-86
2022/12/23 21:09:42;;;;;;;2.90;0.87;;;;;;;;;;20996400;28;20229;-85
2022/12/23 21:19:44;;;;;;;3.53;1.00;;;;;;;;;;20979114;28;20694;-84
2022/12/23 21:29:46;;;;;;;2.07;0.80;;;;;;;;;;20978354;28;20237;-85
2022/12/23 21:39:48;;;;;;;3.70;0.80;;;;;;;;;;20960425;28;20243;-85
2022/12/23 21:49:49;;;;;;;4.33;0.97;;;;;;;;;;20960079;28;20225;-86
2022/12/23 21:59:52;;;;;;;2.93;0.70;;;;;;;;;;20990022;28;20221;-85
2022/12/23 22:09:54;;;;;;;3.73;1.10;;;;;;;;;;20995496;28;20296;-86
2022/12/23 22:19:56;;;;;;;2.23;0.90;;;;;;;;;;20978158;28;20772;-85
2022/12/23 22:29:58;;;;;;;1.23;0.50;;;;;;;;;;20960672;28;20282;-86
2022/12/23 22:40:00;;;;;;;2.33;0.60;;;;;;;;;;20974976;28;20523;-86
2022/12/23 22:50:03;;;;;;;1.13;0.67;;;;;;;;;;20976921;28;20225;-86
2022/12/23 23:00:05;;;;;;;0.70;0.50;;;;;;;;;;20979411;28;20213;-87
2022/12/23 23:10:08;;;;;;;1.43;0.50;;;;;;;;;;20990658;28;20237;-88
2022/12/23 23:20:10;;;;;;;2.03;0.80;;;;;;;;;;20991925;28;20678;-86
2022/12/23 23:30:12;;;;;;;0.70;0.50;;;;;;;;;;21038478;28;20263;-88
2022/12/23 23:40:14;;;;;;;0.77;0.50;;;;;;;;;;21009731;28;20217;-87
2022/12/23 23:50:16;;;;;;;2.10;0.70;;;;;;;;;;20989382;28;20279;-87
